sensor_id;sensor_type;location;lat;lon;timestamp;P1;durP1;ratioP1;P2;durP2;ratioP2
43990;SDS011;29654;50.784;20.604;2023-07-16T00:03:32;7.78;;;6.97;;
43990;SDS011;29654;50.784;20.604;2023-07-16T00:08:35;8.13;;;7.00;;
43990;SDS011;29654;50.784;20.604;2023-07-16T00:13:39;8.70;;;7.63;;
43990;SDS011;29654;50.784;20.604;2023-07-16T00:18:46;9.13;;;8.00;;
43990;SDS011;29654;50.784;20.604;2023-07-16T00:23:49;9.43;;;7.80;;
43990;SDS011;29654;50.784;20.604;2023-07-16T00:28:52;8.57;;;7.03;;
43990;SDS011;29654;50.784;20.604;2023-07-16T00:33:55;6.93;;;6.10;;
43990;SDS011;29654;50.784;20.604;2023-07-16T00:38:58;7.45;;;6.75;;
43990;SDS011;29654;50.784;20.604;2023-07-16T00:44:02;7.63;;;6.93;;
43990;SDS011;29654;50.784;20.604;2023-07-16T00:49:04;8.05;;;7.35;;
43990;SDS011;29654;50.784;20.604;2023-07-16T00:54:08;8.18;;;7.15;;
43990;SDS011;29654;50.784;20.604;2023-07-16T00:59:12;6.00;;;5.50;;
43990;SDS011;29654;50.784;20.604;2023-07-16T01:04:14;8.15;;;7.45;;
43990;SDS011;29654;50.784;20.604;2023-07-16T01:09:18;7.82;;;7.00;;
43990;SDS011;29654;50.784;20.604;2023-07-16T01:14:23;7.35;;;6.72;;
43990;SDS011;29654;50.784;20.604;2023-07-16T01:19:26;8.73;;;7.60;;
43990;SDS011;29654;50.784;20.604;2023-07-16T01:30:14;7.60;;;6.82;;
43990;SDS011;29654;50.784;20.604;2023-07-16T01:35:17;8.05;;;7.25;;
43990;SDS011;29654;50.784;20.604;2023-07-16T01:40:21;7.07;;;6.47;;
43990;SDS011;29654;50.784;20.604;2023-07-16T01:45:26;6.55;;;5.88;;
43990;SDS011;29654;50.784;20.604;2023-07-16T01:50:29;6.22;;;5.72;;
43990;SDS011;29654;50.784;20.604;2023-07-16T01:55:31;6.90;;;6.40;;
43990;SDS011;29654;50.784;20.604;2023-07-16T02:00:35;6.35;;;5.75;;
43990;SDS011;29654;50.784;20.604;2023-07-16T02:05:38;6.25;;;5.65;;
43990;SDS011;29654;50.784;20.604;2023-07-16T02:10:41;6.28;;;5.68;;
43990;SDS011;29654;50.784;20.604;2023-07-16T02:15:47;6.32;;;5.78;;
43990;SDS011;29654;50.784;20.604;2023-07-16T02:20:49;6.43;;;5.95;;
43990;SDS011;29654;50.784;20.604;2023-07-16T02:25:52;6.68;;;6.07;;
43990;SDS011;29654;50.784;20.604;2023-07-16T02:30:56;7.53;;;5.85;;
43990;SDS011;29654;50.784;20.604;2023-07-16T02:35:59;6.70;;;6.18;;
43990;SDS011;29654;50.784;20.604;2023-07-16T02:41:02;7.43;;;6.32;;
43990;SDS011;29654;50.784;20.604;2023-07-16T02:46:08;6.70;;;6.20;;
43990;SDS011;29654;50.784;20.604;2023-07-16T02:51:10;5.47;;;5.00;;
43990;SDS011;29654;50.784;20.604;2023-07-16T02:56:13;5.85;;;5.38;;
43990;SDS011;29654;50.784;20.604;2023-07-16T03:01:18;6.53;;;5.57;;
43990;SDS011;29654;50.784;20.604;2023-07-16T03:06:20;6.50;;;6.07;;
43990;SDS011;29654;50.784;20.604;2023-07-16T03:11:25;6.75;;;6.20;;
43990;SDS011;29654;50.784;20.604;2023-07-16T03:16:29;6.88;;;6.28;;
43990;SDS011;29654;50.784;20.604;2023-07-16T03:21:31;6.22;;;5.72;;
43990;SDS011;29654;50.784;20.604;2023-07-16T03:26:34;7.53;;;6.90;;
43990;SDS011;29654;50.784;20.604;2023-07-16T03:31:39;8.27;;;7.57;;
43990;SDS011;29654;50.784;20.604;2023-07-16T03:36:43;8.00;;;7.30;;
43990;SDS011;29654;50.784;20.604;2023-07-16T03:41:46;8.98;;;8.07;;
43990;SDS011;29654;50.784;20.604;2023-07-16T03:46:50;8.35;;;7.47;;
43990;SDS011;29654;50.784;20.604;2023-07-16T03:51:53;8.48;;;7.57;;
43990;SDS011;29654;50.784;20.604;2023-07-16T03:56:56;8.00;;;7.40;;
43990;SDS011;29654;50.784;20.604;2023-07-16T04:02:01;7.00;;;6.43;;
43990;SDS011;29654;50.784;20.604;2023-07-16T04:07:05;6.85;;;6.28;;
43990;SDS011;29654;50.784;20.604;2023-07-16T04:12:07;7.07;;;6.32;;
43990;SDS011;29654;50.784;20.604;2023-07-16T04:17:11;6.28;;;5.75;;
43990;SDS011;29654;50.784;20.604;2023-07-16T04:22:14;6.70;;;6.20;;
43990;SDS011;29654;50.784;20.604;2023-07-16T04:27:17;5.95;;;5.55;;
43990;SDS011;29654;50.784;20.604;2023-07-16T04:32:21;5.85;;;5.35;;
43990;SDS011;29654;50.784;20.604;2023-07-16T04:37:24;5.82;;;5.38;;
43990;SDS011;29654;50.784;20.604;2023-07-16T04:42:26;6.38;;;5.97;;
43990;SDS011;29654;50.784;20.604;2023-07-16T04:47:30;5.60;;;5.25;;
43990;SDS011;29654;50.784;20.604;2023-07-16T04:52:33;5.20;;;4.88;;
43990;SDS011;29654;50.784;20.604;2023-07-16T04:57:36;5.57;;;5.28;;
43990;SDS011;29654;50.784;20.604;2023-07-16T05:02:40;6.13;;;5.63;;
43990;SDS011;29654;50.784;20.604;2023-07-16T05:07:42;6.03;;;5.63;;
43990;SDS011;29654;50.784;20.604;2023-07-16T05:12:45;5.35;;;4.85;;
43990;SDS011;29654;50.784;20.604;2023-07-16T05:17:49;5.90;;;5.43;;
43990;SDS011;29654;50.784;20.604;2023-07-16T05:22:52;5.43;;;5.03;;
43990;SDS011;29654;50.784;20.604;2023-07-16T05:27:55;4.82;;;4.53;;
43990;SDS011;29654;50.784;20.604;2023-07-16T05:32:59;4.90;;;4.60;;
43990;SDS011;29654;50.784;20.604;2023-07-16T05:38:02;5.50;;;5.10;;
43990;SDS011;29654;50.784;20.604;2023-07-16T05:43:04;5.47;;;5.07;;
43990;SDS011;29654;50.784;20.604;2023-07-16T05:48:08;6.07;;;5.57;;
43990;SDS011;29654;50.784;20.604;2023-07-16T05:53:12;6.00;;;5.45;;
43990;SDS011;29654;50.784;20.604;2023-07-16T05:58:15;5.20;;;4.82;;
43990;SDS011;29654;50.784;20.604;2023-07-16T06:03:19;5.32;;;4.82;;
43990;SDS011;29654;50.784;20.604;2023-07-16T06:08:21;4.75;;;4.45;;
43990;SDS011;29654;50.784;20.604;2023-07-16T06:13:25;5.28;;;4.88;;
43990;SDS011;29654;50.784;20.604;2023-07-16T06:18:29;4.88;;;4.47;;
43990;SDS011;29654;50.784;20.604;2023-07-16T06:23:32;4.97;;;4.57;;
43990;SDS011;29654;50.784;20.604;2023-07-16T06:28:35;4.32;;;4.03;;
43990;SDS011;29654;50.784;20.604;2023-07-16T06:33:38;5.05;;;4.75;;
43990;SDS011;29654;50.784;20.604;2023-07-16T06:38:41;4.53;;;4.15;;
43990;SDS011;29654;50.784;20.604;2023-07-16T06:43:44;4.35;;;4.05;;
43990;SDS011;29654;50.784;20.604;2023-07-16T06:48:48;4.07;;;3.80;;
43990;SDS011;29654;50.784;20.604;2023-07-16T06:53:50;4.50;;;4.20;;
43990;SDS011;29654;50.784;20.604;2023-07-16T06:58:53;4.28;;;3.88;;
43990;SDS011;29654;50.784;20.604;2023-07-16T07:03:57;3.80;;;3.50;;
43990;SDS011;29654;50.784;20.604;2023-07-16T07:08:59;4.47;;;4.07;;
43990;SDS011;29654;50.784;20.604;2023-07-16T07:14:02;4.97;;;4.00;;
43990;SDS011;29654;50.784;20.604;2023-07-16T07:19:06;4.50;;;4.20;;
43990;SDS011;29654;50.784;20.604;2023-07-16T07:24:09;3.97;;;3.67;;
43990;SDS011;29654;50.784;20.604;2023-07-16T07:29:11;4.85;;;4.55;;
43990;SDS011;29654;50.784;20.604;2023-07-16T07:34:16;4.57;;;4.18;;
43990;SDS011;29654;50.784;20.604;2023-07-16T07:39:18;4.47;;;4.07;;
43990;SDS011;29654;50.784;20.604;2023-07-16T07:44:21;3.85;;;3.65;;
43990;SDS011;29654;50.784;20.604;2023-07-16T07:49:25;4.05;;;3.70;;
43990;SDS011;29654;50.784;20.604;2023-07-16T07:54:28;4.13;;;3.83;;
43990;SDS011;29654;50.784;20.604;2023-07-16T07:59:33;3.92;;;3.63;;
43990;SDS011;29654;50.784;20.604;2023-07-16T08:04:37;4.22;;;3.92;;
43990;SDS011;29654;50.784;20.604;2023-07-16T08:09:40;4.47;;;4.20;;
43990;SDS011;29654;50.784;20.604;2023-07-16T08:14:42;3.85;;;3.47;;
43990;SDS011;29654;50.784;20.604;2023-07-16T08:19:46;4.15;;;3.85;;
43990;SDS011;29654;50.784;20.604;2023-07-16T08:24:49;4.18;;;3.88;;
43990;SDS011;29654;50.784;20.604;2023-07-16T08:29:52;4.32;;;4.03;;
43990;SDS011;29654;50.784;20.604;2023-07-16T08:34:56;4.35;;;4.05;;
43990;SDS011;29654;50.784;20.604;2023-07-16T08:39:59;4.40;;;3.92;;
43990;SDS011;29654;50.784;20.604;2023-07-16T08:45:02;4.20;;;3.90;;
43990;SDS011;29654;50.784;20.604;2023-07-16T08:50:07;4.00;;;3.70;;
43990;SDS011;29654;50.784;20.604;2023-07-16T08:55:11;3.88;;;3.60;;
43990;SDS011;29654;50.784;20.604;2023-07-16T09:00:13;4.53;;;4.13;;
43990;SDS011;29654;50.784;20.604;2023-07-16T09:05:20;4.35;;;4.05;;
43990;SDS011;29654;50.784;20.604;2023-07-16T09:10:23;4.93;;;4.53;;
43990;SDS011;29654;50.784;20.604;2023-07-16T09:15:26;4.93;;;4.53;;
43990;SDS011;29654;50.784;20.604;2023-07-16T09:20:32;5.10;;;4.70;;
43990;SDS011;29654;50.784;20.604;2023-07-16T09:25:35;4.22;;;3.92;;
43990;SDS011;29654;50.784;20.604;2023-07-16T09:30:40;5.07;;;4.70;;
43990;SDS011;29654;50.784;20.604;2023-07-16T09:35:44;5.45;;;4.72;;
43990;SDS011;29654;50.784;20.604;2023-07-16T09:40:48;6.22;;;5.72;;
43990;SDS011;29654;50.784;20.604;2023-07-16T09:45:51;5.55;;;5.25;;
43990;SDS011;29654;50.784;20.604;2023-07-16T09:50:57;5.47;;;5.18;;
43990;SDS011;29654;50.784;20.604;2023-07-16T09:56:01;6.32;;;5.72;;
43990;SDS011;29654;50.784;20.604;2023-07-16T10:01:07;6.07;;;5.57;;
43990;SDS011;29654;50.784;20.604;2023-07-16T10:06:12;6.07;;;5.68;;
43990;SDS011;29654;50.784;20.604;2023-07-16T10:11:15;5.57;;;5.18;;
43990;SDS011;29654;50.784;20.604;2023-07-16T10:16:19;4.88;;;4.57;;
43990;SDS011;29654;50.784;20.604;2023-07-16T10:21:25;5.97;;;5.47;;
43990;SDS011;29654;50.784;20.604;2023-07-16T10:26:28;5.63;;;5.13;;
43990;SDS011;29654;50.784;20.604;2023-07-16T10:31:32;6.68;;;6.13;;
43990;SDS011;29654;50.784;20.604;2023-07-16T10:36:40;5.70;;;5.30;;
43990;SDS011;29654;50.784;20.604;2023-07-16T10:41:44;5.68;;;5.18;;
43990;SDS011;29654;50.784;20.604;2023-07-16T10:46:47;5.60;;;5.28;;
43990;SDS011;29654;50.784;20.604;2023-07-16T10:51:53;5.47;;;5.07;;
43990;SDS011;29654;50.784;20.604;2023-07-16T10:56:56;5.47;;;5.07;;
43990;SDS011;29654;50.784;20.604;2023-07-16T11:01:58;5.95;;;5.35;;
43990;SDS011;29654;50.784;20.604;2023-07-16T11:07:05;5.60;;;5.20;;
43990;SDS011;29654;50.784;20.604;2023-07-16T11:12:13;5.13;;;4.80;;
43990;SDS011;29654;50.784;20.604;2023-07-16T11:17:17;5.45;;;4.95;;
43990;SDS011;29654;50.784;20.604;2023-07-16T11:22:26;5.50;;;5.10;;
43990;SDS011;29654;50.784;20.604;2023-07-16T11:27:31;5.35;;;4.88;;
43990;SDS011;29654;50.784;20.604;2023-07-16T11:32:34;5.28;;;4.97;;
43990;SDS011;29654;50.784;20.604;2023-07-16T11:37:40;5.28;;;4.88;;
43990;SDS011;29654;50.784;20.604;2023-07-16T11:42:42;5.75;;;5.25;;
43990;SDS011;29654;50.784;20.604;2023-07-16T11:47:45;5.45;;;4.95;;
43990;SDS011;29654;50.784;20.604;2023-07-16T11:52:53;5.57;;;5.18;;
43990;SDS011;29654;50.784;20.604;2023-07-16T11:57:56;5.68;;;5.28;;
43990;SDS011;29654;50.784;20.604;2023-07-16T12:02:59;5.40;;;5.00;;
43990;SDS011;29654;50.784;20.604;2023-07-16T12:08:04;5.30;;;4.90;;
43990;SDS011;29654;50.784;20.604;2023-07-16T12:13:14;5.57;;;5.07;;
43990;SDS011;29654;50.784;20.604;2023-07-16T12:18:16;5.45;;;5.15;;
43990;SDS011;29654;50.784;20.604;2023-07-16T12:23:20;5.63;;;5.13;;
43990;SDS011;29654;50.784;20.604;2023-07-16T12:28:23;5.30;;;4.80;;
43990;SDS011;29654;50.784;20.604;2023-07-16T12:33:26;5.32;;;4.93;;
43990;SDS011;29654;50.784;20.604;2023-07-16T12:38:30;5.85;;;5.45;;
43990;SDS011;29654;50.784;20.604;2023-07-16T12:43:33;5.13;;;4.72;;
43990;SDS011;29654;50.784;20.604;2023-07-16T12:48:35;5.03;;;4.63;;
43990;SDS011;29654;50.784;20.604;2023-07-16T12:53:39;5.28;;;4.88;;
43990;SDS011;29654;50.784;20.604;2023-07-16T12:58:44;5.30;;;4.80;;
43990;SDS011;29654;50.784;20.604;2023-07-16T13:03:47;5.43;;;4.93;;
43990;SDS011;29654;50.784;20.604;2023-07-16T13:08:50;5.10;;;4.72;;
43990;SDS011;29654;50.784;20.604;2023-07-16T13:13:53;4.80;;;4.50;;
43990;SDS011;29654;50.784;20.604;2023-07-16T13:18:56;4.80;;;4.40;;
43990;SDS011;29654;50.784;20.604;2023-07-16T13:24:00;5.10;;;4.70;;
43990;SDS011;29654;50.784;20.604;2023-07-16T13:29:02;4.22;;;3.97;;
43990;SDS011;29654;50.784;20.604;2023-07-16T13:34:05;4.28;;;3.97;;
43990;SDS011;29654;50.784;20.604;2023-07-16T13:39:09;5.13;;;4.55;;
43990;SDS011;29654;50.784;20.604;2023-07-16T13:44:13;4.68;;;4.38;;
43990;SDS011;29654;50.784;20.604;2023-07-16T13:49:16;4.60;;;4.15;;
43990;SDS011;29654;50.784;20.604;2023-07-16T13:54:20;4.22;;;3.92;;
43990;SDS011;29654;50.784;20.604;2023-07-16T13:59:22;3.97;;;3.78;;
43990;SDS011;29654;50.784;20.604;2023-07-16T14:04:25;4.63;;;4.22;;
43990;SDS011;29654;50.784;20.604;2023-07-16T14:09:29;4.60;;;4.18;;
43990;SDS011;29654;50.784;20.604;2023-07-16T14:14:31;4.30;;;4.00;;
43990;SDS011;29654;50.784;20.604;2023-07-16T14:19:34;4.43;;;4.03;;
43990;SDS011;29654;50.784;20.604;2023-07-16T14:24:38;3.95;;;3.75;;
43990;SDS011;29654;50.784;20.604;2023-07-16T14:29:41;4.80;;;4.38;;
43990;SDS011;29654;50.784;20.604;2023-07-16T14:34:45;4.57;;;4.28;;
43990;SDS011;29654;50.784;20.604;2023-07-16T14:39:49;4.00;;;3.80;;
43990;SDS011;29654;50.784;20.604;2023-07-16T14:44:51;4.43;;;4.13;;
43990;SDS011;29654;50.784;20.604;2023-07-16T14:49:54;4.65;;;4.25;;
43990;SDS011;29654;50.784;20.604;2023-07-16T14:54:58;4.53;;;4.07;;
43990;SDS011;29654;50.784;20.604;2023-07-16T15:00:00;4.13;;;3.83;;
43990;SDS011;29654;50.784;20.604;2023-07-16T15:05:04;4.22;;;3.92;;
43990;SDS011;29654;50.784;20.604;2023-07-16T15:10:09;4.03;;;3.78;;
43990;SDS011;29654;50.784;20.604;2023-07-16T15:15:12;4.03;;;3.72;;
43990;SDS011;29654;50.784;20.604;2023-07-16T15:20:15;3.97;;;3.72;;
43990;SDS011;29654;50.784;20.604;2023-07-16T15:25:19;4.18;;;3.78;;
43990;SDS011;29654;50.784;20.604;2023-07-16T15:30:22;4.32;;;3.92;;
43990;SDS011;29654;50.784;20.604;2023-07-16T15:35:25;3.83;;;3.63;;
43990;SDS011;29654;50.784;20.604;2023-07-16T15:40:31;4.72;;;4.22;;
43990;SDS011;29654;50.784;20.604;2023-07-16T15:45:35;4.32;;;3.88;;
43990;SDS011;29654;50.784;20.604;2023-07-16T15:50:38;4.45;;;4.05;;
43990;SDS011;29654;50.784;20.604;2023-07-16T15:55:42;4.53;;;4.13;;
43990;SDS011;29654;50.784;20.604;2023-07-16T16:00:45;4.75;;;4.35;;
43990;SDS011;29654;50.784;20.604;2023-07-16T16:05:47;4.35;;;4.05;;
43990;SDS011;29654;50.784;20.604;2023-07-16T16:10:51;4.07;;;3.88;;
43990;SDS011;29654;50.784;20.604;2023-07-16T16:15:54;4.68;;;4.38;;
43990;SDS011;29654;50.784;20.604;2023-07-16T16:20:57;3.92;;;3.70;;
43990;SDS011;29654;50.784;20.604;2023-07-16T16:26:01;4.40;;;3.83;;
43990;SDS011;29654;50.784;20.604;2023-07-16T16:31:05;4.55;;;4.25;;
43990;SDS011;29654;50.784;20.604;2023-07-16T16:36:08;4.47;;;4.07;;
43990;SDS011;29654;50.784;20.604;2023-07-16T16:41:13;4.10;;;3.80;;
43990;SDS011;29654;50.784;20.604;2023-07-16T16:46:16;4.43;;;4.13;;
43990;SDS011;29654;50.784;20.604;2023-07-16T16:51:18;4.22;;;3.92;;
43990;SDS011;29654;50.784;20.604;2023-07-16T16:56:22;4.05;;;3.72;;
43990;SDS011;29654;50.784;20.604;2023-07-16T17:01:25;4.25;;;3.88;;
43990;SDS011;29654;50.784;20.604;2023-07-16T17:06:27;4.68;;;4.18;;
43990;SDS011;29654;50.784;20.604;2023-07-16T17:11:31;4.78;;;4.32;;
43990;SDS011;29654;50.784;20.604;2023-07-16T17:16:34;4.32;;;3.97;;
43990;SDS011;29654;50.784;20.604;2023-07-16T17:21:36;4.18;;;3.88;;
43990;SDS011;29654;50.784;20.604;2023-07-16T17:26:41;4.55;;;3.83;;
43990;SDS011;29654;50.784;20.604;2023-07-16T17:31:44;4.82;;;4.40;;
43990;SDS011;29654;50.784;20.604;2023-07-16T17:36:46;4.30;;;3.90;;
43990;SDS011;29654;50.784;20.604;2023-07-16T17:41:50;4.40;;;4.07;;
43990;SDS011;29654;50.784;20.604;2023-07-16T17:46:53;4.25;;;3.95;;
43990;SDS011;29654;50.784;20.604;2023-07-16T17:51:55;3.72;;;3.47;;
43990;SDS011;29654;50.784;20.604;2023-07-16T17:56:59;4.68;;;4.28;;
43990;SDS011;29654;50.784;20.604;2023-07-16T18:02:02;4.40;;;4.00;;
43990;SDS011;29654;50.784;20.604;2023-07-16T18:07:05;4.38;;;4.07;;
43990;SDS011;29654;50.784;20.604;2023-07-16T18:12:09;4.57;;;4.28;;
43990;SDS011;29654;50.784;20.604;2023-07-16T18:17:11;3.97;;;3.67;;
43990;SDS011;29654;50.784;20.604;2023-07-16T18:22:14;3.95;;;3.72;;
43990;SDS011;29654;50.784;20.604;2023-07-16T18:27:18;4.05;;;3.75;;
43990;SDS011;29654;50.784;20.604;2023-07-16T18:32:21;3.67;;;3.38;;
43990;SDS011;29654;50.784;20.604;2023-07-16T18:37:23;4.43;;;4.03;;
43990;SDS011;29654;50.784;20.604;2023-07-16T18:42:27;3.80;;;3.58;;
43990;SDS011;29654;50.784;20.604;2023-07-16T18:47:32;4.47;;;4.07;;
43990;SDS011;29654;50.784;20.604;2023-07-16T18:52:34;4.55;;;4.15;;
43990;SDS011;29654;50.784;20.604;2023-07-16T18:57:39;3.97;;;3.67;;
43990;SDS011;29654;50.784;20.604;2023-07-16T19:02:43;4.45;;;4.18;;
43990;SDS011;29654;50.784;20.604;2023-07-16T19:07:46;4.28;;;3.97;;
43990;SDS011;29654;50.784;20.604;2023-07-16T19:12:50;4.35;;;4.03;;
43990;SDS011;29654;50.784;20.604;2023-07-16T19:17:53;5.43;;;4.72;;
43990;SDS011;29654;50.784;20.604;2023-07-16T19:22:55;6.10;;;5.60;;
43990;SDS011;29654;50.784;20.604;2023-07-16T19:27:59;5.40;;;5.00;;
43990;SDS011;29654;50.784;20.604;2023-07-16T19:33:02;5.55;;;5.15;;
43990;SDS011;29654;50.784;20.604;2023-07-16T19:38:05;6.25;;;4.40;;
43990;SDS011;29654;50.784;20.604;2023-07-16T19:43:09;5.47;;;4.30;;
43990;SDS011;29654;50.784;20.604;2023-07-16T19:48:11;4.82;;;4.40;;
43990;SDS011;29654;50.784;20.604;2023-07-16T19:53:14;4.72;;;3.63;;
43990;SDS011;29654;50.784;20.604;2023-07-16T19:58:18;4.32;;;3.92;;
43990;SDS011;29654;50.784;20.604;2023-07-16T20:03:21;3.28;;;3.00;;
43990;SDS011;29654;50.784;20.604;2023-07-16T20:08:23;3.20;;;2.95;;
43990;SDS011;29654;50.784;20.604;2023-07-16T20:13:28;3.15;;;2.95;;
43990;SDS011;29654;50.784;20.604;2023-07-16T20:18:31;3.75;;;2.95;;
43990;SDS011;29654;50.784;20.604;2023-07-16T20:23:34;3.67;;;2.95;;
43990;SDS011;29654;50.784;20.604;2023-07-16T20:28:38;4.28;;;3.28;;
43990;SDS011;29654;50.784;20.604;2023-07-16T20:33:40;3.97;;;3.00;;
43990;SDS011;29654;50.784;20.604;2023-07-16T20:38:43;4.53;;;3.05;;
43990;SDS011;29654;50.784;20.604;2023-07-16T20:43:47;3.95;;;2.80;;
43990;SDS011;29654;50.784;20.604;2023-07-16T20:48:50;3.70;;;3.00;;
43990;SDS011;29654;50.784;20.604;2023-07-16T20:53:52;2.78;;;2.55;;
43990;SDS011;29654;50.784;20.604;2023-07-16T20:58:57;2.55;;;2.35;;
43990;SDS011;29654;50.784;20.604;2023-07-16T21:03:59;2.80;;;2.58;;
43990;SDS011;29654;50.784;20.604;2023-07-16T21:09:03;2.60;;;2.40;;
43990;SDS011;29654;50.784;20.604;2023-07-16T21:14:07;4.15;;;2.47;;
43990;SDS011;29654;50.784;20.604;2023-07-16T21:19:10;3.22;;;2.50;;
43990;SDS011;29654;50.784;20.604;2023-07-16T21:24:13;2.38;;;2.28;;
43990;SDS011;29654;50.784;20.604;2023-07-16T21:29:17;2.92;;;2.63;;
43990;SDS011;29654;50.784;20.604;2023-07-16T21:34:20;2.75;;;2.55;;
43990;SDS011;29654;50.784;20.604;2023-07-16T21:39:23;3.80;;;3.03;;
43990;SDS011;29654;50.784;20.604;2023-07-16T21:44:27;3.13;;;2.85;;
43990;SDS011;29654;50.784;20.604;2023-07-16T21:49:29;3.80;;;2.83;;
43990;SDS011;29654;50.784;20.604;2023-07-16T21:54:34;2.65;;;2.42;;
43990;SDS011;29654;50.784;20.604;2023-07-16T21:59:38;2.83;;;2.50;;
43990;SDS011;29654;50.784;20.604;2023-07-16T22:04:41;2.80;;;2.60;;
43990;SDS011;29654;50.784;20.604;2023-07-16T22:09:44;3.45;;;2.78;;
43990;SDS011;29654;50.784;20.604;2023-07-16T22:14:50;2.97;;;2.72;;
43990;SDS011;29654;50.784;20.604;2023-07-16T22:19:52;3.03;;;2.83;;
43990;SDS011;29654;50.784;20.604;2023-07-16T22:24:55;3.45;;;3.13;;
43990;SDS011;29654;50.784;20.604;2023-07-16T22:29:59;3.45;;;2.72;;
43990;SDS011;29654;50.784;20.604;2023-07-16T22:35:01;3.40;;;2.60;;
43990;SDS011;29654;50.784;20.604;2023-07-16T22:40:05;3.15;;;2.50;;
43990;SDS011;29654;50.784;20.604;2023-07-16T22:45:11;4.50;;;2.42;;
43990;SDS011;29654;50.784;20.604;2023-07-16T22:50:14;3.35;;;2.97;;
43990;SDS011;29654;50.784;20.604;2023-07-16T22:55:16;3.70;;;2.72;;
43990;SDS011;29654;50.784;20.604;2023-07-16T23:00:21;3.35;;;2.75;;
43990;SDS011;29654;50.784;20.604;2023-07-16T23:05:24;3.13;;;2.40;;
43990;SDS011;29654;50.784;20.604;2023-07-16T23:10:28;3.00;;;2.80;;
43990;SDS011;29654;50.784;20.604;2023-07-16T23:15:32;3.92;;;2.72;;
43990;SDS011;29654;50.784;20.604;2023-07-16T23:20:35;2.85;;;2.40;;
43990;SDS011;29654;50.784;20.604;2023-07-16T23:25:37;3.17;;;2.97;;
43990;SDS011;29654;50.784;20.604;2023-07-16T23:30:42;3.13;;;2.67;;
43990;SDS011;29654;50.784;20.604;2023-07-16T23:35:46;4.20;;;3.30;;
43990;SDS011;29654;50.784;20.604;2023-07-16T23:40:48;2.88;;;2.67;;
43990;SDS011;29654;50.784;20.604;2023-07-16T23:45:52;3.33;;;3.13;;
43990;SDS011;29654;50.784;20.604;2023-07-16T23:50:55;3.10;;;2.72;;
43990;SDS011;29654;50.784;20.604;2023-07-16T23:55:57;3.38;;;3.08;;
